sensor_id;sensor_type;location;lat;lon;timestamp;P1;durP1;ratioP1;P2;durP2;ratioP2
77409;SDS011;66481;51.332;22.804;2023-04-28T00:00:43;26.85;;;15.57;;
77409;SDS011;66481;51.332;22.804;2023-04-28T00:04:52;29.58;;;17.23;;
77409;SDS011;66481;51.332;22.804;2023-04-28T00:08:54;32.05;;;17.25;;
77409;SDS011;66481;51.332;22.804;2023-04-28T00:12:54;34.55;;;17.50;;
77409;SDS011;66481;51.332;22.804;2023-04-28T00:16:55;41.92;;;20.30;;
77409;SDS011;66481;51.332;22.804;2023-04-28T00:20:59;82.35;;;38.03;;
77409;SDS011;66481;51.332;22.804;2023-04-28T00:25:01;71.63;;;33.17;;
77409;SDS011;66481;51.332;22.804;2023-04-28T00:29:02;76.00;;;34.00;;
77409;SDS011;66481;51.332;22.804;2023-04-28T00:33:03;73.63;;;35.20;;
77409;SDS011;66481;51.332;22.804;2023-04-28T00:37:05;65.93;;;30.15;;
77409;SDS011;66481;51.332;22.804;2023-04-28T00:41:08;57.22;;;27.40;;
77409;SDS011;66481;51.332;22.804;2023-04-28T00:45:09;47.70;;;23.02;;
77409;SDS011;66481;51.332;22.804;2023-04-28T00:49:11;35.95;;;18.83;;
77409;SDS011;66481;51.332;22.804;2023-04-28T00:53:12;41.78;;;20.52;;
77409;SDS011;66481;51.332;22.804;2023-04-28T00:57:14;40.67;;;22.58;;
77409;SDS011;66481;51.332;22.804;2023-04-28T01:01:15;43.75;;;22.02;;
77409;SDS011;66481;51.332;22.804;2023-04-28T01:05:16;36.92;;;21.95;;
77409;SDS011;66481;51.332;22.804;2023-04-28T01:09:17;37.50;;;21.55;;
77409;SDS011;66481;51.332;22.804;2023-04-28T01:13:18;39.92;;;22.10;;
77409;SDS011;66481;51.332;22.804;2023-04-28T01:17:20;32.08;;;19.13;;
77409;SDS011;66481;51.332;22.804;2023-04-28T01:21:27;26.67;;;15.57;;
77409;SDS011;66481;51.332;22.804;2023-04-28T01:25:31;30.13;;;15.60;;
77409;SDS011;66481;51.332;22.804;2023-04-28T01:29:32;25.67;;;14.50;;
77409;SDS011;66481;51.332;22.804;2023-04-28T01:33:33;25.75;;;14.50;;
77409;SDS011;66481;51.332;22.804;2023-04-28T01:37:36;27.35;;;15.50;;
77409;SDS011;66481;51.332;22.804;2023-04-28T01:41:37;26.50;;;16.30;;
77409;SDS011;66481;51.332;22.804;2023-04-28T01:45:38;26.38;;;14.88;;
77409;SDS011;66481;51.332;22.804;2023-04-28T01:49:38;27.17;;;13.85;;
77409;SDS011;66481;51.332;22.804;2023-04-28T01:53:39;26.70;;;14.25;;
77409;SDS011;66481;51.332;22.804;2023-04-28T01:57:40;24.25;;;13.25;;
77409;SDS011;66481;51.332;22.804;2023-04-28T02:01:41;24.45;;;13.65;;
77409;SDS011;66481;51.332;22.804;2023-04-28T02:05:42;22.80;;;13.52;;
77409;SDS011;66481;51.332;22.804;2023-04-28T02:09:43;24.30;;;14.15;;
77409;SDS011;66481;51.332;22.804;2023-04-28T02:13:44;26.20;;;13.80;;
77409;SDS011;66481;51.332;22.804;2023-04-28T02:17:45;24.52;;;14.00;;
77409;SDS011;66481;51.332;22.804;2023-04-28T02:21:46;23.85;;;13.45;;
77409;SDS011;66481;51.332;22.804;2023-04-28T02:25:47;23.77;;;14.63;;
77409;SDS011;66481;51.332;22.804;2023-04-28T02:29:48;22.10;;;13.50;;
77409;SDS011;66481;51.332;22.804;2023-04-28T02:33:48;23.58;;;14.20;;
77409;SDS011;66481;51.332;22.804;2023-04-28T02:37:49;24.42;;;14.27;;
77409;SDS011;66481;51.332;22.804;2023-04-28T02:41:50;23.33;;;13.02;;
77409;SDS011;66481;51.332;22.804;2023-04-28T02:45:52;24.92;;;13.57;;
77409;SDS011;66481;51.332;22.804;2023-04-28T02:49:53;23.67;;;13.68;;
77409;SDS011;66481;51.332;22.804;2023-04-28T02:53:54;21.33;;;11.95;;
77409;SDS011;66481;51.332;22.804;2023-04-28T02:57:55;23.23;;;13.70;;
77409;SDS011;66481;51.332;22.804;2023-04-28T03:01:56;25.70;;;12.88;;
77409;SDS011;66481;51.332;22.804;2023-04-28T03:05:56;20.85;;;12.63;;
77409;SDS011;66481;51.332;22.804;2023-04-28T03:09:57;20.88;;;11.95;;
77409;SDS011;66481;51.332;22.804;2023-04-28T03:13:58;21.80;;;13.20;;
77409;SDS011;66481;51.332;22.804;2023-04-28T03:17:59;22.30;;;14.55;;
77409;SDS011;66481;51.332;22.804;2023-04-28T03:22:00;25.70;;;13.80;;
77409;SDS011;66481;51.332;22.804;2023-04-28T03:26:01;19.58;;;12.38;;
77409;SDS011;66481;51.332;22.804;2023-04-28T03:30:02;30.00;;;15.60;;
77409;SDS011;66481;51.332;22.804;2023-04-28T03:34:03;20.27;;;13.63;;
77409;SDS011;66481;51.332;22.804;2023-04-28T03:38:04;23.65;;;12.82;;
77409;SDS011;66481;51.332;22.804;2023-04-28T03:42:06;20.15;;;12.43;;
77409;SDS011;66481;51.332;22.804;2023-04-28T03:46:07;22.90;;;12.65;;
77409;SDS011;66481;51.332;22.804;2023-04-28T03:50:08;18.15;;;12.93;;
77409;SDS011;66481;51.332;22.804;2023-04-28T03:54:09;22.60;;;12.65;;
77409;SDS011;66481;51.332;22.804;2023-04-28T03:58:18;20.75;;;11.85;;
77409;SDS011;66481;51.332;22.804;2023-04-28T04:02:19;17.15;;;11.93;;
77409;SDS011;66481;51.332;22.804;2023-04-28T04:06:20;19.85;;;11.95;;
77409;SDS011;66481;51.332;22.804;2023-04-28T04:10:22;18.15;;;10.63;;
77409;SDS011;66481;51.332;22.804;2023-04-28T04:14:23;16.08;;;10.57;;
77409;SDS011;66481;51.332;22.804;2023-04-28T04:18:24;19.85;;;11.65;;
77409;SDS011;66481;51.332;22.804;2023-04-28T04:22:25;14.90;;;10.63;;
77409;SDS011;66481;51.332;22.804;2023-04-28T04:26:26;18.02;;;11.13;;
77409;SDS011;66481;51.332;22.804;2023-04-28T04:30:27;16.55;;;11.00;;
77409;SDS011;66481;51.332;22.804;2023-04-28T04:34:30;15.25;;;10.75;;
77409;SDS011;66481;51.332;22.804;2023-04-28T04:38:31;18.98;;;11.63;;
77409;SDS011;66481;51.332;22.804;2023-04-28T04:42:32;18.70;;;11.40;;
77409;SDS011;66481;51.332;22.804;2023-04-28T04:46:33;15.35;;;10.25;;
77409;SDS011;66481;51.332;22.804;2023-04-28T04:50:34;16.67;;;11.40;;
77409;SDS011;66481;51.332;22.804;2023-04-28T04:54:36;18.30;;;11.32;;
77409;SDS011;66481;51.332;22.804;2023-04-28T04:58:38;15.48;;;9.88;;
77409;SDS011;66481;51.332;22.804;2023-04-28T05:02:39;15.82;;;10.70;;
77409;SDS011;66481;51.332;22.804;2023-04-28T05:06:40;18.27;;;10.32;;
77409;SDS011;66481;51.332;22.804;2023-04-28T05:10:41;18.92;;;10.52;;
77409;SDS011;66481;51.332;22.804;2023-04-28T05:14:42;16.15;;;11.00;;
77409;SDS011;66481;51.332;22.804;2023-04-28T05:18:43;14.27;;;9.25;;
77409;SDS011;66481;51.332;22.804;2023-04-28T05:22:43;11.25;;;8.07;;
77409;SDS011;66481;51.332;22.804;2023-04-28T05:26:44;15.07;;;8.65;;
77409;SDS011;66481;51.332;22.804;2023-04-28T05:30:45;18.10;;;10.02;;
77409;SDS011;66481;51.332;22.804;2023-04-28T05:34:47;15.18;;;10.85;;
77409;SDS011;66481;51.332;22.804;2023-04-28T05:38:48;13.65;;;8.75;;
77409;SDS011;66481;51.332;22.804;2023-04-28T05:42:49;15.55;;;9.40;;
77409;SDS011;66481;51.332;22.804;2023-04-28T05:46:49;15.88;;;11.05;;
77409;SDS011;66481;51.332;22.804;2023-04-28T05:50:51;13.65;;;10.50;;
77409;SDS011;66481;51.332;22.804;2023-04-28T05:54:52;12.07;;;9.02;;
77409;SDS011;66481;51.332;22.804;2023-04-28T05:58:52;13.35;;;9.05;;
77409;SDS011;66481;51.332;22.804;2023-04-28T06:02:53;11.68;;;8.40;;
77409;SDS011;66481;51.332;22.804;2023-04-28T06:06:55;12.65;;;8.75;;
77409;SDS011;66481;51.332;22.804;2023-04-28T06:10:56;11.75;;;10.30;;
77409;SDS011;66481;51.332;22.804;2023-04-28T06:14:57;12.25;;;9.45;;
77409;SDS011;66481;51.332;22.804;2023-04-28T06:18:58;12.70;;;8.98;;
77409;SDS011;66481;51.332;22.804;2023-04-28T06:22:59;13.18;;;9.65;;
77409;SDS011;66481;51.332;22.804;2023-04-28T06:27:00;12.80;;;8.77;;
77409;SDS011;66481;51.332;22.804;2023-04-28T06:31:02;14.52;;;9.35;;
77409;SDS011;66481;51.332;22.804;2023-04-28T06:35:03;11.15;;;7.30;;
77409;SDS011;66481;51.332;22.804;2023-04-28T06:39:04;6.72;;;5.60;;
77409;SDS011;66481;51.332;22.804;2023-04-28T06:43:05;7.55;;;6.53;;
77409;SDS011;66481;51.332;22.804;2023-04-28T06:47:06;8.63;;;6.38;;
77409;SDS011;66481;51.332;22.804;2023-04-28T06:51:07;9.73;;;5.88;;
77409;SDS011;66481;51.332;22.804;2023-04-28T06:55:08;10.73;;;7.68;;
77409;SDS011;66481;51.332;22.804;2023-04-28T06:59:12;10.80;;;6.93;;
77409;SDS011;66481;51.332;22.804;2023-04-28T07:03:13;10.20;;;8.18;;
77409;SDS011;66481;51.332;22.804;2023-04-28T07:07:14;9.02;;;6.75;;
77409;SDS011;66481;51.332;22.804;2023-04-28T07:11:15;8.75;;;7.25;;
77409;SDS011;66481;51.332;22.804;2023-04-28T07:15:16;10.55;;;6.22;;
77409;SDS011;66481;51.332;22.804;2023-04-28T07:19:17;7.72;;;5.30;;
77409;SDS011;66481;51.332;22.804;2023-04-28T07:23:18;6.95;;;5.70;;
77409;SDS011;66481;51.332;22.804;2023-04-28T07:27:19;8.32;;;5.75;;
77409;SDS011;66481;51.332;22.804;2023-04-28T07:31:21;172.68;;;132.23;;
77409;SDS011;66481;51.332;22.804;2023-04-28T07:35:22;9.30;;;5.78;;
77409;SDS011;66481;51.332;22.804;2023-04-28T07:39:23;8.43;;;5.25;;
77409;SDS011;66481;51.332;22.804;2023-04-28T07:43:24;10.95;;;4.15;;
77409;SDS011;66481;51.332;22.804;2023-04-28T07:47:25;34.35;;;10.85;;
77409;SDS011;66481;51.332;22.804;2023-04-28T07:51:26;4.45;;;3.55;;
77409;SDS011;66481;51.332;22.804;2023-04-28T07:55:28;12.82;;;5.38;;
77409;SDS011;66481;51.332;22.804;2023-04-28T07:59:29;7.20;;;3.58;;
77409;SDS011;66481;51.332;22.804;2023-04-28T08:03:30;4.82;;;3.53;;
77409;SDS011;66481;51.332;22.804;2023-04-28T08:07:31;10.35;;;4.35;;
77409;SDS011;66481;51.332;22.804;2023-04-28T08:11:32;13.50;;;6.15;;
77409;SDS011;66481;51.332;22.804;2023-04-28T08:15:34;10.65;;;5.18;;
77409;SDS011;66481;51.332;22.804;2023-04-28T08:19:35;20.00;;;8.27;;
77409;SDS011;66481;51.332;22.804;2023-04-28T08:23:36;8.80;;;6.05;;
77409;SDS011;66481;51.332;22.804;2023-04-28T08:27:37;6.28;;;3.35;;
77409;SDS011;66481;51.332;22.804;2023-04-28T08:31:39;7.57;;;3.83;;
77409;SDS011;66481;51.332;22.804;2023-04-28T08:35:40;6.90;;;3.35;;
77409;SDS011;66481;51.332;22.804;2023-04-28T08:39:42;5.88;;;2.75;;
77409;SDS011;66481;51.332;22.804;2023-04-28T08:43:43;5.80;;;2.38;;
77409;SDS011;66481;51.332;22.804;2023-04-28T08:47:45;5.55;;;3.08;;
77409;SDS011;66481;51.332;22.804;2023-04-28T08:51:58;4.40;;;2.70;;
77409;SDS011;66481;51.332;22.804;2023-04-28T09:00:01;3.95;;;2.22;;
77409;SDS011;66481;51.332;22.804;2023-04-28T09:04:02;3.85;;;2.25;;
77409;SDS011;66481;51.332;22.804;2023-04-28T09:08:03;5.35;;;2.70;;
77409;SDS011;66481;51.332;22.804;2023-04-28T09:12:04;5.30;;;4.63;;
77409;SDS011;66481;51.332;22.804;2023-04-28T09:16:06;4.63;;;2.47;;
77409;SDS011;66481;51.332;22.804;2023-04-28T09:20:29;11.52;;;4.05;;
77409;SDS011;66481;51.332;22.804;2023-04-28T09:24:30;3.72;;;2.40;;
77409;SDS011;66481;51.332;22.804;2023-04-28T09:28:33;7.22;;;3.00;;
77409;SDS011;66481;51.332;22.804;2023-04-28T09:32:35;3.53;;;2.42;;
77409;SDS011;66481;51.332;22.804;2023-04-28T09:36:37;3.63;;;2.53;;
77409;SDS011;66481;51.332;22.804;2023-04-28T09:40:57;3.22;;;2.20;;
77409;SDS011;66481;51.332;22.804;2023-04-28T09:45:03;4.00;;;2.38;;
77409;SDS011;66481;51.332;22.804;2023-04-28T09:49:12;4.47;;;2.53;;
77409;SDS011;66481;51.332;22.804;2023-04-28T09:53:13;4.88;;;2.97;;
77409;SDS011;66481;51.332;22.804;2023-04-28T09:57:17;4.88;;;2.60;;
77409;SDS011;66481;51.332;22.804;2023-04-28T10:01:18;6.68;;;4.13;;
77409;SDS011;66481;51.332;22.804;2023-04-28T10:05:20;3.65;;;1.90;;
77409;SDS011;66481;51.332;22.804;2023-04-28T10:09:22;12.10;;;4.55;;
77409;SDS011;66481;51.332;22.804;2023-04-28T10:13:26;4.30;;;2.72;;
77409;SDS011;66481;51.332;22.804;2023-04-28T10:17:27;4.10;;;2.92;;
77409;SDS011;66481;51.332;22.804;2023-04-28T10:21:28;5.22;;;2.55;;
77409;SDS011;66481;51.332;22.804;2023-04-28T10:25:35;7.00;;;3.50;;
77409;SDS011;66481;51.332;22.804;2023-04-28T10:29:38;34.67;;;24.08;;
77409;SDS011;66481;51.332;22.804;2023-04-28T10:33:39;5.63;;;2.83;;
77409;SDS011;66481;51.332;22.804;2023-04-28T10:42:50;5.50;;;2.90;;
77409;SDS011;66481;51.332;22.804;2023-04-28T10:47:20;5.07;;;3.15;;
77409;SDS011;66481;51.332;22.804;2023-04-28T10:59:39;5.05;;;2.97;;
77409;SDS011;66481;51.332;22.804;2023-04-28T11:07:45;6.40;;;2.72;;
77409;SDS011;66481;51.332;22.804;2023-04-28T11:12:36;4.90;;;2.95;;
77409;SDS011;66481;51.332;22.804;2023-04-28T11:17:15;5.30;;;2.63;;
77409;SDS011;66481;51.332;22.804;2023-04-28T11:21:19;3.28;;;2.55;;
77409;SDS011;66481;51.332;22.804;2023-04-28T11:25:21;4.53;;;3.13;;
77409;SDS011;66481;51.332;22.804;2023-04-28T11:29:35;4.22;;;2.42;;
77409;SDS011;66481;51.332;22.804;2023-04-28T11:33:37;5.28;;;3.30;;
77409;SDS011;66481;51.332;22.804;2023-04-28T11:37:39;4.07;;;2.70;;
77409;SDS011;66481;51.332;22.804;2023-04-28T11:41:41;5.82;;;2.65;;
77409;SDS011;66481;51.332;22.804;2023-04-28T11:45:45;7.15;;;3.67;;
77409;SDS011;66481;51.332;22.804;2023-04-28T11:58:15;8.90;;;3.33;;
77409;SDS011;66481;51.332;22.804;2023-04-28T12:02:25;4.40;;;2.95;;
77409;SDS011;66481;51.332;22.804;2023-04-28T12:06:29;4.38;;;2.72;;
77409;SDS011;66481;51.332;22.804;2023-04-28T12:10:31;5.72;;;2.72;;
77409;SDS011;66481;51.332;22.804;2023-04-28T12:14:52;6.60;;;3.08;;
77409;SDS011;66481;51.332;22.804;2023-04-28T12:19:07;3.40;;;2.80;;
77409;SDS011;66481;51.332;22.804;2023-04-28T12:23:10;4.30;;;3.42;;
77409;SDS011;66481;51.332;22.804;2023-04-28T12:27:15;4.90;;;3.70;;
77409;SDS011;66481;51.332;22.804;2023-04-28T12:31:17;4.40;;;3.10;;
77409;SDS011;66481;51.332;22.804;2023-04-28T12:35:20;4.22;;;2.70;;
77409;SDS011;66481;51.332;22.804;2023-04-28T12:39:25;5.13;;;3.33;;
77409;SDS011;66481;51.332;22.804;2023-04-28T12:43:27;4.50;;;3.40;;
77409;SDS011;66481;51.332;22.804;2023-04-28T12:47:29;5.63;;;3.80;;
77409;SDS011;66481;51.332;22.804;2023-04-28T12:51:31;6.10;;;3.60;;
77409;SDS011;66481;51.332;22.804;2023-04-28T12:55:34;6.32;;;3.15;;
77409;SDS011;66481;51.332;22.804;2023-04-28T12:59:35;4.55;;;3.38;;
77409;SDS011;66481;51.332;22.804;2023-04-28T13:03:36;9.10;;;5.45;;
77409;SDS011;66481;51.332;22.804;2023-04-28T13:07:37;5.90;;;3.47;;
77409;SDS011;66481;51.332;22.804;2023-04-28T13:11:38;4.38;;;3.75;;
77409;SDS011;66481;51.332;22.804;2023-04-28T13:15:40;7.50;;;3.95;;
77409;SDS011;66481;51.332;22.804;2023-04-28T13:19:41;5.85;;;3.90;;
77409;SDS011;66481;51.332;22.804;2023-04-28T13:23:42;4.78;;;3.50;;
77409;SDS011;66481;51.332;22.804;2023-04-28T13:27:43;5.90;;;3.95;;
77409;SDS011;66481;51.332;22.804;2023-04-28T13:31:44;6.60;;;3.92;;
77409;SDS011;66481;51.332;22.804;2023-04-28T13:35:46;6.90;;;4.78;;
77409;SDS011;66481;51.332;22.804;2023-04-28T13:39:47;5.28;;;3.95;;
77409;SDS011;66481;51.332;22.804;2023-04-28T13:43:48;4.88;;;3.88;;
77409;SDS011;66481;51.332;22.804;2023-04-28T13:47:49;7.25;;;3.83;;
77409;SDS011;66481;51.332;22.804;2023-04-28T13:51:50;5.25;;;3.50;;
77409;SDS011;66481;51.332;22.804;2023-04-28T13:55:51;5.50;;;3.47;;
77409;SDS011;66481;51.332;22.804;2023-04-28T13:59:53;7.47;;;3.95;;
77409;SDS011;66481;51.332;22.804;2023-04-28T14:03:54;5.90;;;5.00;;
77409;SDS011;66481;51.332;22.804;2023-04-28T14:07:55;6.28;;;3.67;;
77409;SDS011;66481;51.332;22.804;2023-04-28T14:11:56;7.82;;;3.67;;
77409;SDS011;66481;51.332;22.804;2023-04-28T14:15:58;7.25;;;3.92;;
77409;SDS011;66481;51.332;22.804;2023-04-28T14:20:02;7.32;;;3.65;;
77409;SDS011;66481;51.332;22.804;2023-04-28T14:24:03;6.53;;;4.75;;
77409;SDS011;66481;51.332;22.804;2023-04-28T14:28:04;6.22;;;4.35;;
77409;SDS011;66481;51.332;22.804;2023-04-28T14:32:05;4.65;;;3.70;;
77409;SDS011;66481;51.332;22.804;2023-04-28T14:36:06;7.03;;;4.65;;
77409;SDS011;66481;51.332;22.804;2023-04-28T14:40:07;5.00;;;4.03;;
77409;SDS011;66481;51.332;22.804;2023-04-28T14:44:08;5.05;;;3.42;;
77409;SDS011;66481;51.332;22.804;2023-04-28T14:48:09;6.05;;;3.22;;
77409;SDS011;66481;51.332;22.804;2023-04-28T14:52:11;5.55;;;3.55;;
77409;SDS011;66481;51.332;22.804;2023-04-28T14:56:12;5.93;;;4.32;;
77409;SDS011;66481;51.332;22.804;2023-04-28T15:00:13;5.32;;;3.83;;
77409;SDS011;66481;51.332;22.804;2023-04-28T15:04:15;7.25;;;4.15;;
77409;SDS011;66481;51.332;22.804;2023-04-28T15:08:16;6.05;;;4.65;;
77409;SDS011;66481;51.332;22.804;2023-04-28T15:12:17;8.52;;;4.82;;
77409;SDS011;66481;51.332;22.804;2023-04-28T15:16:18;6.00;;;4.70;;
77409;SDS011;66481;51.332;22.804;2023-04-28T15:20:19;5.40;;;4.68;;
77409;SDS011;66481;51.332;22.804;2023-04-28T15:24:20;6.10;;;4.50;;
77409;SDS011;66481;51.332;22.804;2023-04-28T15:28:21;5.32;;;4.28;;
77409;SDS011;66481;51.332;22.804;2023-04-28T15:32:23;5.43;;;3.97;;
77409;SDS011;66481;51.332;22.804;2023-04-28T15:36:24;6.57;;;4.30;;
77409;SDS011;66481;51.332;22.804;2023-04-28T15:40:26;6.70;;;5.07;;
77409;SDS011;66481;51.332;22.804;2023-04-28T15:44:28;5.95;;;4.25;;
77409;SDS011;66481;51.332;22.804;2023-04-28T15:48:29;5.00;;;4.50;;
77409;SDS011;66481;51.332;22.804;2023-04-28T15:52:31;8.40;;;5.18;;
77409;SDS011;66481;51.332;22.804;2023-04-28T15:56:32;6.25;;;4.13;;
77409;SDS011;66481;51.332;22.804;2023-04-28T16:00:33;6.10;;;4.05;;
77409;SDS011;66481;51.332;22.804;2023-04-28T16:04:34;5.15;;;4.68;;
77409;SDS011;66481;51.332;22.804;2023-04-28T16:08:36;6.00;;;4.22;;
77409;SDS011;66481;51.332;22.804;2023-04-28T16:12:37;6.55;;;5.68;;
77409;SDS011;66481;51.332;22.804;2023-04-28T16:16:40;11.90;;;6.38;;
77409;SDS011;66481;51.332;22.804;2023-04-28T16:20:42;6.57;;;5.32;;
77409;SDS011;66481;51.332;22.804;2023-04-28T16:24:44;8.57;;;6.07;;
77409;SDS011;66481;51.332;22.804;2023-04-28T16:28:46;9.25;;;5.78;;
77409;SDS011;66481;51.332;22.804;2023-04-28T16:32:47;9.10;;;5.43;;
77409;SDS011;66481;51.332;22.804;2023-04-28T16:52:43;7.50;;;4.88;;
77409;SDS011;66481;51.332;22.804;2023-04-28T16:56:44;6.28;;;5.03;;
77409;SDS011;66481;51.332;22.804;2023-04-28T17:00:45;9.18;;;4.35;;
77409;SDS011;66481;51.332;22.804;2023-04-28T17:04:46;7.97;;;4.75;;
77409;SDS011;66481;51.332;22.804;2023-04-28T17:08:47;6.25;;;4.75;;
77409;SDS011;66481;51.332;22.804;2023-04-28T17:12:49;9.50;;;5.65;;
77409;SDS011;66481;51.332;22.804;2023-04-28T17:16:51;10.55;;;5.85;;
77409;SDS011;66481;51.332;22.804;2023-04-28T17:20:53;6.90;;;4.97;;
77409;SDS011;66481;51.332;22.804;2023-04-28T17:24:56;10.45;;;5.95;;
77409;SDS011;66481;51.332;22.804;2023-04-28T17:28:57;9.50;;;6.70;;
77409;SDS011;66481;51.332;22.804;2023-04-28T17:32:59;8.23;;;5.45;;
77409;SDS011;66481;51.332;22.804;2023-04-28T17:37:01;11.60;;;6.75;;
77409;SDS011;66481;51.332;22.804;2023-04-28T17:41:03;12.90;;;7.13;;
77409;SDS011;66481;51.332;22.804;2023-04-28T17:45:06;13.73;;;7.32;;
77409;SDS011;66481;51.332;22.804;2023-04-28T17:49:10;19.25;;;10.15;;
77409;SDS011;66481;51.332;22.804;2023-04-28T17:53:11;21.08;;;9.13;;
77409;SDS011;66481;51.332;22.804;2023-04-28T17:57:14;91.25;;;28.73;;
77409;SDS011;66481;51.332;22.804;2023-04-28T18:01:17;151.40;;;45.60;;
77409;SDS011;66481;51.332;22.804;2023-04-28T18:05:19;159.65;;;53.63;;
77409;SDS011;66481;51.332;22.804;2023-04-28T18:13:23;129.02;;;41.47;;
77409;SDS011;66481;51.332;22.804;2023-04-28T18:17:26;120.75;;;35.38;;
77409;SDS011;66481;51.332;22.804;2023-04-28T18:21:27;33.30;;;12.38;;
77409;SDS011;66481;51.332;22.804;2023-04-28T18:25:29;138.32;;;42.60;;
77409;SDS011;66481;51.332;22.804;2023-04-28T18:29:34;192.32;;;56.90;;
77409;SDS011;66481;51.332;22.804;2023-04-28T18:33:35;23.13;;;14.32;;
77409;SDS011;66481;51.332;22.804;2023-04-28T18:37:36;26.08;;;13.07;;
77409;SDS011;66481;51.332;22.804;2023-04-28T18:41:37;104.60;;;42.33;;
77409;SDS011;66481;51.332;22.804;2023-04-28T18:45:40;25.20;;;14.23;;
77409;SDS011;66481;51.332;22.804;2023-04-28T18:49:42;31.90;;;16.25;;
77409;SDS011;66481;51.332;22.804;2023-04-28T18:53:46;23.48;;;13.98;;
77409;SDS011;66481;51.332;22.804;2023-04-28T18:57:48;14.90;;;10.20;;
77409;SDS011;66481;51.332;22.804;2023-04-28T19:01:50;30.42;;;17.05;;
77409;SDS011;66481;51.332;22.804;2023-04-28T19:05:50;18.90;;;12.55;;
77409;SDS011;66481;51.332;22.804;2023-04-28T19:09:51;19.67;;;12.25;;
77409;SDS011;66481;51.332;22.804;2023-04-28T19:13:56;21.27;;;11.60;;
77409;SDS011;66481;51.332;22.804;2023-04-28T19:18:00;25.15;;;12.10;;
77409;SDS011;66481;51.332;22.804;2023-04-28T19:22:04;21.33;;;12.32;;
77409;SDS011;66481;51.332;22.804;2023-04-28T19:26:06;80.22;;;30.77;;
77409;SDS011;66481;51.332;22.804;2023-04-28T19:30:12;62.28;;;24.17;;
77409;SDS011;66481;51.332;22.804;2023-04-28T19:34:14;41.47;;;19.00;;
77409;SDS011;66481;51.332;22.804;2023-04-28T19:38:16;16.27;;;9.85;;
77409;SDS011;66481;51.332;22.804;2023-04-28T19:42:18;17.00;;;11.77;;
77409;SDS011;66481;51.332;22.804;2023-04-28T19:46:20;20.48;;;13.63;;
77409;SDS011;66481;51.332;22.804;2023-04-28T19:50:22;15.75;;;9.63;;
77409;SDS011;66481;51.332;22.804;2023-04-28T19:54:25;17.65;;;9.70;;
77409;SDS011;66481;51.332;22.804;2023-04-28T19:58:27;15.10;;;9.93;;
77409;SDS011;66481;51.332;22.804;2023-04-28T20:02:29;18.08;;;11.18;;
77409;SDS011;66481;51.332;22.804;2023-04-28T20:06:33;21.88;;;12.23;;
77409;SDS011;66481;51.332;22.804;2023-04-28T20:10:36;19.85;;;9.10;;
77409;SDS011;66481;51.332;22.804;2023-04-28T20:14:39;15.07;;;8.93;;
77409;SDS011;66481;51.332;22.804;2023-04-28T20:18:42;16.48;;;9.70;;
77409;SDS011;66481;51.332;22.804;2023-04-28T20:22:44;14.50;;;9.00;;
77409;SDS011;66481;51.332;22.804;2023-04-28T20:26:48;16.70;;;9.52;;
77409;SDS011;66481;51.332;22.804;2023-04-28T20:30:50;13.07;;;8.95;;
77409;SDS011;66481;51.332;22.804;2023-04-28T20:34:53;15.77;;;9.20;;
77409;SDS011;66481;51.332;22.804;2023-04-28T20:38:54;20.08;;;11.35;;
77409;SDS011;66481;51.332;22.804;2023-04-28T20:42:56;17.63;;;11.35;;
77409;SDS011;66481;51.332;22.804;2023-04-28T20:46:58;16.83;;;11.55;;
77409;SDS011;66481;51.332;22.804;2023-04-28T20:51:00;20.88;;;10.95;;
77409;SDS011;66481;51.332;22.804;2023-04-28T20:55:03;16.45;;;10.13;;
77409;SDS011;66481;51.332;22.804;2023-04-28T20:59:05;15.48;;;10.20;;
77409;SDS011;66481;51.332;22.804;2023-04-28T21:03:06;16.15;;;10.38;;
77409;SDS011;66481;51.332;22.804;2023-04-28T21:07:07;15.40;;;9.07;;
77409;SDS011;66481;51.332;22.804;2023-04-28T21:11:14;21.00;;;10.68;;
77409;SDS011;66481;51.332;22.804;2023-04-28T21:15:17;18.20;;;10.82;;
77409;SDS011;66481;51.332;22.804;2023-04-28T21:19:18;16.13;;;10.07;;
77409;SDS011;66481;51.332;22.804;2023-04-28T21:23:19;15.43;;;9.82;;
77409;SDS011;66481;51.332;22.804;2023-04-28T21:27:21;17.40;;;10.40;;
77409;SDS011;66481;51.332;22.804;2023-04-28T21:31:22;19.95;;;9.73;;
77409;SDS011;66481;51.332;22.804;2023-04-28T21:35:27;20.42;;;11.77;;
77409;SDS011;66481;51.332;22.804;2023-04-28T21:39:28;20.83;;;12.70;;
77409;SDS011;66481;51.332;22.804;2023-04-28T21:43:29;20.55;;;12.50;;
77409;SDS011;66481;51.332;22.804;2023-04-28T21:47:31;18.65;;;12.23;;
77409;SDS011;66481;51.332;22.804;2023-04-28T21:51:33;17.60;;;11.70;;
77409;SDS011;66481;51.332;22.804;2023-04-28T21:55:34;19.52;;;11.32;;
77409;SDS011;66481;51.332;22.804;2023-04-28T21:59:35;20.38;;;11.88;;
77409;SDS011;66481;51.332;22.804;2023-04-28T22:03:36;22.38;;;13.90;;
77409;SDS011;66481;51.332;22.804;2023-04-28T22:07:38;21.73;;;12.35;;
77409;SDS011;66481;51.332;22.804;2023-04-28T22:11:39;17.98;;;10.88;;
77409;SDS011;66481;51.332;22.804;2023-04-28T22:15:40;19.92;;;12.07;;
77409;SDS011;66481;51.332;22.804;2023-04-28T22:19:42;20.48;;;11.77;;
77409;SDS011;66481;51.332;22.804;2023-04-28T22:23:43;26.08;;;12.55;;
77409;SDS011;66481;51.332;22.804;2023-04-28T22:27:44;20.23;;;12.07;;
77409;SDS011;66481;51.332;22.804;2023-04-28T22:31:45;23.88;;;13.15;;
77409;SDS011;66481;51.332;22.804;2023-04-28T22:35:46;22.20;;;12.68;;
77409;SDS011;66481;51.332;22.804;2023-04-28T22:39:47;24.30;;;13.60;;
77409;SDS011;66481;51.332;22.804;2023-04-28T22:43:48;24.08;;;14.50;;
77409;SDS011;66481;51.332;22.804;2023-04-28T22:47:50;20.75;;;13.38;;
77409;SDS011;66481;51.332;22.804;2023-04-28T22:51:51;22.85;;;15.10;;
77409;SDS011;66481;51.332;22.804;2023-04-28T22:55:53;23.95;;;13.30;;
77409;SDS011;66481;51.332;22.804;2023-04-28T22:59:56;23.92;;;13.23;;
77409;SDS011;66481;51.332;22.804;2023-04-28T23:03:57;24.85;;;13.65;;
77409;SDS011;66481;51.332;22.804;2023-04-28T23:18:19;23.65;;;13.57;;
77409;SDS011;66481;51.332;22.804;2023-04-28T23:22:35;21.38;;;12.88;;
77409;SDS011;66481;51.332;22.804;2023-04-28T23:26:36;23.20;;;14.20;;
77409;SDS011;66481;51.332;22.804;2023-04-28T23:30:37;24.75;;;14.20;;
77409;SDS011;66481;51.332;22.804;2023-04-28T23:34:38;20.45;;;12.32;;
77409;SDS011;66481;51.332;22.804;2023-04-28T23:38:41;19.92;;;12.10;;
77409;SDS011;66481;51.332;22.804;2023-04-28T23:42:42;22.17;;;12.38;;
77409;SDS011;66481;51.332;22.804;2023-04-28T23:46:43;26.02;;;14.05;;
77409;SDS011;66481;51.332;22.804;2023-04-28T23:50:44;21.70;;;11.73;;
77409;SDS011;66481;51.332;22.804;2023-04-28T23:54:45;23.00;;;12.00;;
77409;SDS011;66481;51.332;22.804;2023-04-28T23:58:46;18.52;;;10.95;;
